aviador You're here:

KICT Decoded Metar

WICHITA in KS, USA
Report Time2017-11-24 01:53:00
UTC Time2017-11-24 02:06:15
Flight Rules vfr VFR
Wind180° at 07 kt
W.Decomp.*RWY 19: 6.7 kt HW 2 kt LCW
RWY 14: 5.9 kt HW 3.8 kt RCW
W.Rank180° ranks 1
Current wind is below 180° avg. (12.0)
Visibility9999 m
Phenomena:N/A
Clouds:N/A
Expected CloudBase > 2,800 ft AGL from Temp-Dew spread
CeilingNone
Temp09°C (ISA -3)
Dew Point02°C (62% RH)
AAT4.8°C
QNH1014 hPa
Density Alt1,004 ft
Elevation1,335 ft
Report Wrong Elevation
Raw Report
KICT 240153Z 18007KT 10SM CLR 09/02 A2994 RMK AO2 SLP144
T00890022=

Extra information for KICT:More info

Metar Taf Metar & Taf Last 4 Metars F.Rules Stats Wind Profile Meteogram Temp Stats Airport Information Weather charts Add Link Nearby VenuesMetar ALERT Operation Metar Decoded Social comments

AIRNAV info for KICT